Tiempo atmosférico en la estación meteorológica de Aragüés Del Puerto, Huesca (1120 m.)



Fecha
DESCASC
Temp. máxima en grados centígrados (hora)
DESCASC
Temp. mínima en grados centígrados (hora)
DESCASC
Temp. media en grados centígrados
DESCASC
Racha de viento máxima en m/sg (hora)
DESCASC
Velocidad máxima media en intervalos de 10 minutos(hora)
DESCASC
Precipitaciones diarias en mm
DESCASC
Precipitaciones de 00:00 a 06:00 en mm
DESCASC
Precipitaciones de 06:00 a 12:00 en mm
DESCASC
Precipitaciones de 12:00 a 18:00 en mm
DESCASC
Precipitaciones de 18:00 a 24:00 en mm
DESCASC
27-12-2019 14.6 (14:20) 1.3 (00:00) 8 4.44 (19:30) 1.67 (21:00) 0 0 0 0 0
28-12-2019 16 (15:00) 4.2 (00:00) 10.1 6.11 (03:10) 3.06 (03:10) 0 0 0 0 0
29-12-2019 11.8 (14:30) 2.2 (00:00) 7 3.06 (14:40) 1.94 (15:00) 0 0 0 0 0
30-12-2019 11.4 (15:10) 1.4 (00:00) 6.4 3.06 (13:50) 1.67 (14:00) 0 0 0 0 0
31-12-2019 11.8 (14:20) 1.1 (00:00) 6.5 2.78 (12:50) 1.67 (13:50) 0 0 0 0 0
01-01-2020 13.2 (15:40) 0.9 (00:00) 7 4.44 (18:20) 1.94 (18:20) 0 0 0 0 0
02-01-2020 14.6 (14:20) 2.4 (00:00) 8.5 4.72 (00:50) 2.5 (03:30) 0 0 0 0 0
03-01-2020 9.2 (14:10) 2.2 (00:00) 5.7 8.33 (19:10) 4.72 (19:10) 0 0 0 0 0
04-01-2020 11.8 (14:20) 0 (00:00) 5.9 4.44 (19:00) 2.78 (19:00) 0 0 0 0 0
05-01-2020 16.3 (14:40) 1.5 (00:00) 8.9 5.28 (21:20) 3.61 (21:30) 0 0 0 0 0
06-01-2020 13.9 (14:50) 2 (00:00) 7.9 5.28 (15:20) 3.06 (15:30) 0 0 0 0 0
07-01-2020 14 (15:30) -0.1 (00:00) 6.9 3.89 (14:20) 2.78 (14:30) 0 0 0 0 0
08-01-2020 15.2 (14:00) 5 (00:00) 10.1 6.67 (23:50) 5 (23:40) 0 0 0 0 0
09-01-2020 14.5 (14:20) 4 (00:00) 9.3 7.5 (15:00) 4.72 (08:40) 0.2 0 0 0 0.2
10-01-2020 10.6 (13:40) 0.4 (00:00) 5.5 13.33 (18:50) 6.67 (20:40) 0.6 0.6 0 0 0
11-01-2020 11.5 (15:00) -2.5 (-00:0) 4.5 4.72 (04:20) 3.33 (18:50) 0 0 0 0 0
12-01-2020 11.9 (14:20) -1.7 (-00:0) 5.1 4.44 (14:40) 2.78 (14:40) 0 0 0 0 0
13-01-2020 12.5 (13:40) -0.4 (00:00) 6 6.67 (18:50) 5.28 (18:50) 0 0 0 0 0
14-01-2020 12.4 (15:30) 0.5 (00:00) 6.4 6.39 (01:50) 5 (01:50) 0 0 0 0 0
15-01-2020 11.7 (14:30) 2.2 (00:00) 6.9 7.5 (06:00) 5 (05:50) 0 0 0 0 0
16-01-2020 13 (13:20) 3 (00:00) 8 8.06 (13:00) 5.28 (06:10) 0 0 0 0 0
17-01-2020 8.5 (01:30) -0.3 (00:00) 4.1 7.5 (16:00) 4.17 (05:00) 7.8 2.4 5 0.4 0
18-01-2020 9 (14:20) -0.8 (-00:0) 4.1 6.67 (15:00) 4.17 (21:30) 7.6 0 0 0 7.6
19-01-2020 6.1 (11:50) 0.1 (00:00) 3.1 27.5 (14:40) 15.28 (14:30) 4 4 0 0 0
20-01-2020 3.8 (16:00) -3.8 (-00:0) 0 21.11 (04:50) 12.5 (00:50) 0 0 0 0 0
21-01-2020 5.1 (16:10) -2.2 (-00:0) 1.4 4.72 (11:40) 2.5 (23:30) 0 0 0 0 0
22-01-2020 11.3 (13:10) 0.4 (00:00) 5.9 8.61 (16:40) 5 (14:50) 11.4 0 0 0.6 10.8
23-01-2020 3.9 (14:30) 0.3 (00:00) 2.1 8.89 (03:00) 6.11 (02:50) 24 11.6 8.2 4.2 0
24-01-2020 9.9 (13:10) 2.8 (00:00) 6.3 6.39 (12:50) 3.89 (21:10) 0 0 0 0 0
25-01-2020 7.9 (13:00) 4.1 (00:00) 6 8.89 (13:20) 5.83 (13:40) 1.2 0 0 0.6 0.6

Gráficas

Temp. máximas Temp. mínimas Temp. medias Precipitaciones Rachas de viento máximas Velocidades máximas media en intervalos de 10 minutos

Datos horarios

Fecha y hora oficial Temperatura (ºC) Velocidad del viento (km/h) Dirección del viento Racha (km/h) Dirección de racha Precipitación (mm) Presión (hPa) Tendencia (hPa) Humedad (%)
2020-01-25 23:00:00 4.1 9 Norte 16 Norte 0 900.1 0.1 87
2020-01-25 22:00:00 4.5 9 Nordeste 18 Nordeste 0 900.2 0.3 85
2020-01-25 21:00:00 4.8 10 Nordeste 19 Norte 0 900 0.5 83
2020-01-25 20:00:00 4.4 8 Nordeste 12 Nordeste 0.2 900 0.7 86
2020-01-25 19:00:00 4.5 3 Noroeste 10 Sudoeste 0.2 899.9 0.4 85
2020-01-25 18:00:00 4.9 6 Sur 16 Sur 0 899.5 -0.4 82
2020-01-25 17:00:00 5.1 4 Sur 19 Este 0.2 899.3 -1.2 81
2020-01-25 16:00:00 5.5 6 Sudeste 23 Sudeste 0 899.5 -1.4 82
2020-01-25 15:00:00 5.7 9 Sudeste 24 Sudeste 0.2 899.9 -1.6 80
2020-01-25 14:00:00 5.9 8 Sudeste 32 Sudeste 0.2 900.5 -0.8 82
2020-01-25 13:00:00 7.9 13 Sudeste 29 Sudeste 0 900.9 -0.2 61
2020-01-25 12:00:00 7 10 Sudeste 23 Sudeste 0 901.5 0.8 62
2020-01-25 11:00:00 6.5 8 Sudeste 23 Sudeste 0 901.3 0.8 64
2020-01-25 10:00:00 6.1 14 Sudeste 25 Sur 0 901.1 0.7 64
2020-01-25 09:00:00 5.5 6 Sudeste 18 Sudeste 0 900.7 0.3 69
2020-01-25 08:00:00 5.5 7 Nordeste 16 Este 0 900.5 -0.2 70
2020-01-25 07:00:00 5.6 8 Nordeste 14 Norte 0 900.4 -0.7 69
2020-01-25 06:00:00 5.7 5 Nordeste 14 Nordeste 0 900.4 -0.9 71
2020-01-25 05:00:00 5.5 4 Sur 11 Nordeste 0 900.7 -0.8 71
2020-01-25 04:00:00 5.3 4 Norte 16 Nordeste 0 901.1 -0.7 72
2020-01-25 03:00:00 5 4 Sudeste 13 Sur 0 901.3 -0.9 73
2020-01-25 02:00:00 4.7 3 Norte 15 Nordeste 0 901.5 -1.1 74
2020-01-25 01:00:00 4.6 10 Nordeste 17 Norte 0 901.8 -0.9 79
2020-01-25 00:00:00 4.6 13 Norte 18 Nordeste 0 902.2 -0.3 82
2020-01-24 23:00:00 4.6 6 Norte 12 Norte 0 902.6 0.5 81
2020-01-24 22:00:00 4.6 5 Nordeste 19 Nordeste 0 902.7 1.2 79
2020-01-24 21:00:00 4.5 9 Nordeste 20 Norte 0 902.5 1.3 80
2020-01-24 20:00:00 4.7 6 Nordeste 17 Nordeste 0 902.1 0.5 79
2020-01-24 19:00:00 5.5 9 Norte 18 Nordeste 0 901.5 -0.2 77
2020-01-24 18:00:00 6.4 12 Nordeste 18 Norte 0 901.2 -0.8 74
2020-01-24 17:00:00 7.8 5 Sudeste 15 Este 0 901.6 -0.7 62
2020-01-24 16:00:00 8.5 7 Sur 20 Sur 0 901.7 -1.2 59
2020-01-24 15:00:00 8.9 6 Sudeste 16 Sur 0 902 -1.3 62
2020-01-24 14:00:00 9.4 10 Sudoeste 21 Sur 0 902.3 -0.7 60
2020-01-24 13:00:00 9.8 13 Sur 23 Sur 0 902.9 -0.1 53
2020-01-24 12:00:00 8.8 6 Sur 16 Nordeste 0 903.3 0.4 55
2020-01-24 11:00:00 6.1 10 Norte 19 Norte 0 903 0.1 70
2020-01-24 10:00:00 4.6 12 Nordeste 22 Norte 0 903 0.3 73
2020-01-24 09:00:00 3.8 10 Nordeste 18 Norte 0 902.9 0.2 78
2020-01-24 08:00:00 3.4 9 Norte 17 Norte 0 902.9 0.5 80
2020-01-24 07:00:00 3.4 13 Nordeste 19 Nordeste 0 902.7 -0.1 82
2020-01-24 06:00:00 3.4 6 Norte 20 Nordeste 0 902.7 -0.8 81
2020-01-24 05:00:00 3.5 12 Norte 20 Norte 0 902.4 -1.2 81
2020-01-24 04:00:00 4 10 Nordeste 18 Nordeste 0 902.8 -1.2 77
2020-01-24 03:00:00 3.4 5 Norte 20 Norte 0 903.5 -0.3 83
2020-01-24 02:00:00 3 5 Sudoeste 9 Sudeste 0 903.6 0 84
2020-01-24 01:00:00 3.2 4 Sudoeste 13 Sudoeste 0 904 0.6 84
2020-01-24 00:00:00 2.8 2 Sudoeste 8 Noroeste 0 903.8 0.7 87
2020-01-23 23:00:00 3.3 3 Nordeste 17 Norte 0 903.6 1 85
2020-01-23 22:00:00 2.8 5 Nordeste 14 Nordeste 0 903.4 1.4 88
2020-01-23 21:00:00 2.4 9 Norte 18 Norte 0 903.1 1.3 89
2020-01-23 20:00:00 1.5 8 Nordeste 18 Norte 0 902.6 0.9 91
2020-01-23 19:00:00 1.9 12 Norte 18 Norte 0 902 0.4 91
2020-01-23 18:00:00 2.1 13 Norte 17 Norte 0 901.8 0.9 91
2020-01-23 17:00:00 1.9 10 Nordeste 17 Norte 0.6 901.7 0.9 92
2020-01-23 16:00:00 1.4 3 Noroeste 18 Sur 2.4 901.6 0.5 91
2020-01-23 15:00:00 3.4 10 Sur 15 Sur 0.8 900.9 -0.4 90
2020-01-23 14:00:00 3.6 2 Sudoeste 7 Norte 0.2 900.8 -0.3 91
2020-01-23 13:00:00 3.4 0 Calma 6 Sudoeste 0.2 901.1 0.4 93
2020-01-23 12:00:00 2.8 4 Nordeste 6 Nordeste 0 901.3 1.3 94
2020-01-23 11:00:00 2.2 3 Sudoeste 7 Norte 0 901.1 0.9 94
2020-01-23 10:00:00 1.5 0 Calma 5 Norte 0.2 900.7 0.1 95
2020-01-23 09:00:00 1.2 5 Norte 10 Norte 0 900 -0.2 94
2020-01-23 08:00:00 1 3 Norte 17 Norte 2 900.2 0 94
2020-01-23 07:00:00 1.1 8 Norte 13 Nordeste 6 900.6 -0.3 93
2020-01-23 06:00:00 1.7 4 Norte 15 Nordeste 2.2 900.2 -1.4 94
2020-01-23 05:00:00 1.9 10 Nordeste 19 Nordeste 0.8 900.2 -1.5 92
2020-01-23 04:00:00 1.8 8 Nordeste 22 Nordeste 2.6 900.9 -1.5 93
2020-01-23 03:00:00 2.4 19 Nordeste 32 Nordeste 1.2 901.6 -0.6 91
2020-01-23 02:00:00 1.1 8 Nordeste 24 Norte 1.4 901.7 -0.4 93
2020-01-23 01:00:00 0.5 4 Nordeste 10 Nordeste 3.4 902.4 1 94
2020-01-23 00:00:00 0.4 0 Calma 13 Norte 3 902.2 1.1 94
2020-01-22 23:00:00 0.6 0 Calma 6 Norte 2.2 902.1 0.8 93
2020-01-22 22:00:00 1 0 Calma 10 Norte 1.8 901.4 0.3 92
2020-01-22 21:00:00 2.2 9 Norte 13 Norte 2.2 901.1 -0.2 90
2020-01-22 20:00:00 3.7 0 Calma 5 Nordeste 1.4 901.3 -0.3 91
2020-01-22 19:00:00 4 2 Oeste 7 Nordeste 0.2 901.1 0.1 88
2020-01-22 18:00:00 4.5 2 Sudeste 25 Este 0.6 901.3 0.1 84
2020-01-22 17:00:00 6.4 13 Sudeste 31 Sudeste 0 901.6 -0.4 67
2020-01-22 16:00:00 8.7 5 Sur 27 Sur 0 901 -1.5 59
2020-01-22 15:00:00 9.6 15 Sur 30 Sur 0 901.2 -2.4 57
2020-01-22 14:00:00 10.9 16 Sur 27 Sur 0 902 -1.8 52
2020-01-22 13:00:00 11.2 11 Sur 21 Sudoeste 0 902.5 -0.9 52
2020-01-22 12:00:00 9.3 5 Sur 10 Sur 0 903.6 0.4 61
2020-01-22 11:00:00 5.3 2 Nordeste 6 Sur 0 903.8 0.9 77
2020-01-22 10:00:00 4.6 2 Sur 12 Norte 0 903.4 0.5 75
2020-01-22 09:00:00 1.8 2 Nordeste 11 Norte 0 903.2 0.3 85
2020-01-22 08:00:00 1.8 3 Oeste 7 Norte 0 902.9 -0.5 84
2020-01-22 07:00:00 1.6 3 Nordeste 11 Norte 0 902.9 -1.1 86
2020-01-22 06:00:00 1.9 2 Este 16 Norte 0 902.9 -1.9 85
2020-01-22 05:00:00 1.5 3 Oeste 15 Sudoeste 0 903.4 -0.7 89
2020-01-22 04:00:00 2.4 8 Oeste 12 Sudoeste 0 904 0.2 85
2020-01-22 03:00:00 3 3 Nordeste 8 Norte 0 904.8 0.9 77
2020-01-22 02:00:00 2.1 6 Norte 11 Norte 0 904.1 -0.1 76
2020-01-22 01:00:00 3.3 3 Nordeste 16 Nordeste 0 903.8 -0.1 69
2020-01-22 00:00:00 3.4 7 Norte 16 Norte 0 903.9 -0.3 66
2020-01-21 23:00:00 1.9 0 Calma 10 Norte 0 904.2 0.7 75
2020-01-21 22:00:00 2.5 4 Norte 12 Norte 0 903.9 0.3 73
2020-01-21 21:00:00 3.1 7 Norte 9 Norte 0 904.2 0.4 73
2020-01-21 20:00:00 3.7 3 Noroeste 12 Norte 0 903.5 0 71
2020-01-21 19:00:00 4.1 4 Este 14 Norte 0 903.6 -0.2 71
2020-01-21 18:00:00 4.2 3 Nordeste 14 Norte 0 903.8 -0.5 73
2020-01-21 17:00:00 3.8 3 Norte 10 Sur 0 903.5 -1 67
2020-01-21 16:00:00 4.9 3 Noroeste 8 Nordeste 0 903.8 -1.5 70
2020-01-21 15:00:00 3.4 4 Sudoeste 13 Noroeste 0 904.3 -1 67
2020-01-21 14:00:00 3.3 2 Sur 8 Sudeste 0 904.5 -0.8 65
2020-01-21 13:00:00 3.2 0 Calma 10 Sur 0 905.3 -0.1 65
2020-01-21 12:00:00 3.3 4 Norte 17 Sudeste 0 905.3 -0.4 64
2020-01-21 11:00:00 3 3 Este 7 Sur 0 905.3 -0.5 67
2020-01-21 10:00:00 2.7 4 Norte 10 Noroeste 0 905.4 -1.2 67
2020-01-21 09:00:00 0.1 4 Noroeste 9 Nordeste 0 905.7 -0.7 72
2020-01-21 08:00:00 -1.2 4 Oeste 11 Noroeste 0 905.8 -0.3 75
2020-01-21 07:00:00 -0.5 2 Nordeste 13 Norte 0 906.6 0.1 70
2020-01-21 06:00:00 -0.4 4 Nordeste 9 Norte 0 906.4 -0.8 66
2020-01-21 05:00:00 -0.5 2 Sudeste 6 Nordeste 0 906.1 -1.4 66
2020-01-21 04:00:00 -0.9 3 Oeste 9 Nordeste 0 906.5 -1.7 66
2020-01-21 03:00:00 -1.3 4 Oeste 8 Oeste 0 907.2 -1.1 67
2020-01-21 02:00:00 -1.4 2 Sudoeste 5 Nordeste 0 907.5 -0.5 69
2020-01-21 01:00:00 -1.7 2 Noroeste 6 Oeste 0 908.2 0.2 68
2020-01-21 00:00:00 -2.2 3 Norte 11 Noroeste 0 908.3 0.3 68
2020-01-20 23:00:00 -1.3 5 Nordeste 10 Norte 0 908 0 64
2020-01-20 22:00:00 -2.8 2 Norte 7 Nordeste 0 908 0.2 74
2020-01-20 21:00:00 -2 2 Oeste 7 Norte 0 908 0.9 70
2020-01-20 20:00:00 -1.6 0 Calma 9 Oeste 0 908 1.3 68
2020-01-20 19:00:00 -0.3 7 Norte 14 Norte 0 907.8 1 63
2020-01-20 18:00:00 0.7 0 Calma 9 Sur 0 907.1 0.4 59
2020-01-20 17:00:00 3 2 Noroeste 11 Oeste 0 906.7 -0.3 47
2020-01-20 16:00:00 3.8 5 Sur 8 Sur 0 906.8 -1 43
2020-01-20 15:00:00 3.2 6 Sudeste 12 Sur 0 906.7 -1.3 38
2020-01-20 14:00:00 2.9 3 Sudeste 6 Sur 0 907 -1.1 32
2020-01-20 13:00:00 2.1 4 Sur 9 Sur 0 907.8 0.3 33
2020-01-20 12:00:00 0.8 5 Sur 9 Sur 0 908 1.2 39
2020-01-20 11:00:00 -0.6 2 Sudeste 6 Sur 0 908.1 1.9 44
2020-01-20 10:00:00 -1.8 2 Sur 7 Norte 0 907.5 2.4 49
2020-01-20 09:00:00 -3.2 3 Norte 6 Norte 0 906.8 2 51
2020-01-20 08:00:00 -2.6 3 Sudoeste 25 Sur 0 906.2 1.6 46
2020-01-20 07:00:00 1.5 14 Este 52 Norte 0 905.1 0.2 23
2020-01-20 06:00:00 2 18 Norte 71 Norte 0 904.8 -1.1 17
2020-01-20 05:00:00 1.4 42 Norte 76 Norte 0 904.6 -1.3 22
2020-01-20 04:00:00 0.6 32 Norte 74 Norte 0 904.9 -1.1 28
2020-01-20 03:00:00 0.7 34 Norte 76 Nordeste 0 905.9 -0.1 29
2020-01-20 02:00:00 1 25 Norte 72 Nordeste 0 905.9 0.3 27
2020-01-20 01:00:00 0.9 41 Norte 76 Nordeste 0 906 0.5 33
2020-01-20 00:00:00 0.4 42 Norte 91 Nordeste 0 906 0.7 40
2020-01-19 23:00:00 0.8 48 Norte 81 Norte 0 905.6 1.2 39
2020-01-19 22:00:00 0.7 48 Norte 95 Norte 0 905.5 1.7 41
2020-01-19 21:00:00 0.6 52 Nordeste 91 Nordeste 0 905.3 2.2 38
2020-01-19 20:00:00 1 45 Norte 91 Norte 0 904.4 1.6 32
2020-01-19 19:00:00 1.8 46 Norte 88 Nordeste 0 903.8 1.6 25
2020-01-19 18:00:00 2.1 49 Norte 90 Norte 0 903.1 1.7 25
2020-01-19 17:00:00 2.6 45 Norte 91 Norte 0 902.8 1.3 30
2020-01-19 16:00:00 3.8 49 Norte 88 Nordeste 0 902.2 0.8 27
2020-01-19 15:00:00 5 52 Norte 99 Norte 0 901.4 -0.8 21
2020-01-19 14:00:00 5.8 46 Nordeste 96 Nordeste 0 901.5 -0.7 23
2020-01-19 13:00:00 5.5 44 Nordeste 90 Nordeste 0 901.4 -0.2 27
2020-01-19 12:00:00 5.7 41 Norte 85 Norte 0 902.2 1 23
2020-01-19 11:00:00 5.4 28 Nordeste 79 Nordeste 0 902.2 1.8 28
2020-01-19 10:00:00 4.6 22 Nordeste 57 Norte 0 901.6 1.5 51
2020-01-19 09:00:00 3.6 23 Norte 62 Norte 0 901.2 1.5 64
2020-01-19 08:00:00 0.7 6 Nordeste 19 Norte 0 900.4 0.5 95
2020-01-19 07:00:00 0.4 6 Sudoeste 23 Norte 0 900.1 0.1 95
2020-01-19 06:00:00 0.2 6 Sudoeste 12 Sudoeste 0.2 899.7 -0.7 94
2020-01-19 05:00:00 0.8 3 Nordeste 6 Noroeste 0 899.9 -0.9 94
2020-01-19 04:00:00 0.8 2 Sudoeste 3 Nordeste 0 900 -0.9 94
2020-01-19 03:00:00 0.9 2 Noroeste 6 Oeste 0.4 900.4 -0.6 93
2020-01-19 02:00:00 0.9 0 Calma 3 Norte 0.8 900.8 0.3 93
2020-01-19 01:00:00 1.1 2 Norte 9 Oeste 2.6 900.9 0.2 92
2020-01-19 00:00:00 2.3 4 Oeste 15 Norte 4.2 901 -0.5 90
2020-01-18 23:00:00 3 3 Noroeste 14 Nordeste 2.6 900.5 -1 91
2020-01-18 22:00:00 2.9 9 Norte 23 Norte 0.8 900.7 -1.2 89
2020-01-18 21:00:00 4.3 5 Nordeste 17 Este 0 901.5 -1 79
2020-01-18 20:00:00 5.6 9 Este 20 Este 0 901.5 -1.4 63
2020-01-18 19:00:00 5.8 8 Este 14 Nordeste 0 901.9 -1.1 62
2020-01-18 18:00:00 6.2 9 Sudeste -- -- 0 902.5 -1.5 64
2020-01-18 17:00:00 7.3 13 Sur 24 Sur 0 902.9 -2.4 48
2020-01-18 16:00:00 7.7 12 Sudeste 21 Sudeste 0 903 -4 39
2020-01-18 15:00:00 8.3 13 Sur 24 Sur 0 904 -3.8 34
2020-01-18 14:00:00 8.4 9 Sudeste 19 Sudeste 0 905.3 -2.8 36
2020-01-18 13:00:00 6.5 9 Sur 15 Sur 0 907 -1.4 46
2020-01-18 12:00:00 5 4 Este 11 Sudoeste 0 907.8 -1.5 53
2020-01-18 11:00:00 3.8 4 Sur 10 Nordeste 0 908.1 -1.4 56
2020-01-18 10:00:00 2.4 8 Nordeste 19 Norte 0 908.4 -0.9 66
2020-01-18 09:00:00 0.9 10 Norte 18 Nordeste 0 909.3 -0.6 74
2020-01-18 08:00:00 0.5 2 Sudeste 13 Norte 0 909.5 1 77
2020-01-18 07:00:00 0.9 6 Nordeste 14 Norte 0 909.3 -0.7 73
2020-01-18 06:00:00 0.2 5 Norte 14 Oeste 0 909.9 0.2 78
2020-01-18 05:00:00 -0.2 4 Este 18 Nordeste 0 908.5 -1.8 81
2020-01-18 04:00:00 0 6 Noroeste 15 Norte 0 910 -0.5 76
2020-01-18 03:00:00 -0.3 9 Norte 18 Nordeste 0 909.7 -0.9 77
2020-01-18 02:00:00 -0.3 10 Norte 15 Norte 0 910.3 -0.6 77
2020-01-18 01:00:00 -0.7 3 Nordeste 15 Norte 0 910.5 -0.9 80
2020-01-18 00:00:00 0.2 9 Norte 17 Norte 0 910.6 -0.8 78
2020-01-17 23:00:00 -0.2 3 Noroeste 12 Norte 0 910.9 -0.7 80
2020-01-17 22:00:00 0.4 3 Noroeste 15 Noroeste 0 911.4 0.4 78
2020-01-17 21:00:00 1.6 6 Norte 18 Noroeste 0 911.4 1.5 70
2020-01-17 20:00:00 1.8 5 Oeste 14 Norte 0 911.6 2.2 76
2020-01-17 19:00:00 2.4 6 Noroeste 19 Noroeste 0 911 1.6 78
2020-01-17 18:00:00 3 9 Oeste 21 Sudoeste 0 909.9 1.4 76
2020-01-17 17:00:00 4.7 10 Oeste 22 Sudoeste 0 909.4 0.9 70
2020-01-17 16:00:00 5.5 12 Oeste 27 Sudoeste 0 909.4 1 66
2020-01-17 15:00:00 6.8 5 Sudoeste 24 Oeste 0 908.5 0.1 66
2020-01-17 14:00:00 5.2 6 Oeste 19 Sudoeste 0.2 908.5 0.7 83
2020-01-17 13:00:00 4.6 5 Sudoeste 16 Sudoeste 0.2 908.4 0.5 87
2020-01-17 12:00:00 4.1 5 Oeste 19 Noroeste 1.8 908.4 1.4 85
2020-01-17 11:00:00 5.4 7 Nordeste 12 Nordeste 1.4 907.8 1.1 90
2020-01-17 10:00:00 5.1 8 Oeste 16 Oeste 1.8 907.9 1.6 88
2020-01-17 09:00:00 5.1 2 Oeste 9 Norte 0 907 0.7 88
2020-01-17 08:00:00 5.3 5 Norte 11 Norte 0 906.7 0.2 86
2020-01-17 07:00:00 5 6 Nordeste 15 Nordeste 0 906.3 -0.8 89
2020-01-17 06:00:00 5.1 9 Norte 18 Norte 0 906.3 -0.7 86
2020-01-17 05:00:00 5 15 Norte 20 Norte 0 906.5 -0.4 86
2020-01-17 04:00:00 5.3 9 Norte 20 Nordeste 1.4 907.1 0 87
2020-01-17 03:00:00 6.2 9 Nordeste 17 Sudoeste 1 907 -0.3 87
2020-01-17 02:00:00 7.9 6 Sudoeste 10 Sudeste 0 906.9 -0.3 69
2020-01-17 01:00:00 8.4 5 Sudeste 18 Sudoeste 0 907.1 -0.1 64
2020-01-17 00:00:00 8.4 5 Sur 19 Sudoeste 0 907.3 0.4 65
2020-01-16 23:00:00 8.7 5 Sudoeste 18 Este 0 907.2 0.3 65
2020-01-16 22:00:00 8.5 7 Sudoeste 18 Sudeste 0 907.2 0.7 68
2020-01-16 21:00:00 8.8 8 Sudeste 24 Sudeste 0 906.9 0.8 68
2020-01-16 20:00:00 9.2 11 Sudeste 21 Sur 0 906.9 0.8 67
2020-01-16 19:00:00 9.3 12 Este 27 Sudeste 0 906.5 0.2 67
2020-01-16 18:00:00 9.5 9 Sudeste 23 Sur 0 906.1 -0.6 68
2020-01-16 17:00:00 10.5 13 Sur 27 Sudeste 0 906.1 -1 63
2020-01-16 16:00:00 11 10 Sur 27 Sur 0 906.3 -1.6 60
2020-01-16 15:00:00 11.5 16 Sur 29 Este 0 906.7 -2.1 56
2020-01-16 14:00:00 13 12 Sudeste 25 Sur 0 907.1 -1.7 51
2020-01-16 13:00:00 12.5 13 Sudeste 29 Sudeste 0 907.9 -0.7 49
2020-01-16 12:00:00 11.7 13 Sur 23 Sur 0 908.8 0.6 50
2020-01-16 11:00:00 10.1 7 Este 14 Nordeste 0 908.8 0.8 47
2020-01-16 10:00:00 7.2 10 Nordeste 21 Norte 0 908.6 0.8 51
2020-01-16 09:00:00 4.2 12 Nordeste 26 Nordeste 0 908.2 0.4 60
2020-01-16 08:00:00 4.5 13 Norte 24 Norte 0 908 0 57
2020-01-16 07:00:00 4.1 14 Norte 24 Nordeste 0 907.8 -0.3 60
2020-01-16 06:00:00 3.6 17 Norte 25 Norte 0 907.8 -0.2 65
2020-01-16 05:00:00 3.7 16 Nordeste 24 Nordeste 0 908 0.4 64
2020-01-16 04:00:00 3.6 15 Nordeste 23 Norte 0 908.1 0.1 65
2020-01-16 03:00:00 3.9 13 Norte 22 Nordeste 0 908 -0.1 69
2020-01-16 02:00:00 4.2 15 Norte 26 Norte 0 907.6 -0.2 73
2020-01-16 01:00:00 4.2 10 Norte 23 Nordeste 0 908 0.5 73
2020-01-16 00:00:00 4.8 15 Nordeste 20 Nordeste 0 908.1 0.7 72
2020-01-15 23:00:00 5.5 6 Nordeste 13 Nordeste 0 907.8 0.6 70
2020-01-15 22:00:00 6 3 Norte 9 Norte 0 907.5 1 69
2020-01-15 21:00:00 6.9 3 Norte 7 Norte 0 907.4 1.5 65
2020-01-15 20:00:00 7.5 5 Norte 10 Norte 0 907.2 2.1 63
2020-01-15 19:00:00 8 2 Sudoeste 9 Noroeste 0 906.5 1.7 60
2020-01-15 18:00:00 8.6 4 Norte 18 Sudoeste 0 905.9 1.4 56
2020-01-15 17:00:00 9.5 5 Sudoeste 11 Sudoeste 0 905.1 0.3 53
2020-01-15 16:00:00 10.8 4 Sur 10 Sudoeste 0 904.8 -0.5 47
2020-01-15 15:00:00 10.5 5 Sudoeste 16 Sur 0 904.5 -0.9 47
2020-01-15 14:00:00 11.2 7 Sudoeste 12 Sudoeste 0 904.8 -0.2 46
2020-01-15 13:00:00 10.2 6 Sur 10 Sur 0 905.3 0.9 47
2020-01-15 12:00:00 9.8 4 Sudeste 8 Sudoeste 0 905.4 1.7 48
2020-01-15 11:00:00 8.9 4 Sur 10 Norte 0 905 1.6 57
2020-01-15 10:00:00 6 2 Noroeste 12 Norte 0 904.4 1.6 62
2020-01-15 09:00:00 5.2 13 Nordeste 18 Nordeste 0 903.7 1.3 63
2020-01-15 08:00:00 5.2 14 Norte 21 Norte 0 903.4 0.5 57
2020-01-15 07:00:00 4.8 7 Norte 25 Norte 0 902.8 0.6 51
2020-01-15 06:00:00 4.6 18 Nordeste 27 Norte 0 902.4 -0.2 39
2020-01-15 05:00:00 3.2 6 Noroeste 19 Sudoeste 0 902.9 0.1 44
2020-01-15 04:00:00 3.2 3 Sudoeste 13 Norte 0 902.2 -0.9 41
2020-01-15 03:00:00 3.3 7 Norte 20 Nordeste 0 902.6 -0.5 46
2020-01-15 02:00:00 2.4 3 Norte 22 Nordeste 0 902.8 -0.1 51
2020-01-15 01:00:00 4.1 4 Nordeste 13 Sudeste 0 903.1 0.4 47
2020-01-15 00:00:00 4.7 5 Nordeste 12 Norte 0 903.1 0.6 41
2020-01-14 23:00:00 4.1 0 Calma 11 Nordeste 0 902.9 0.6 48
2020-01-14 22:00:00 4.1 9 Norte 17 Nordeste 0 902.7 1 50
2020-01-14 21:00:00 4.3 6 Norte 12 Nordeste 0 902.5 1.3 51
2020-01-14 20:00:00 5.7 6 Norte 15 Nordeste 0 902.3 1 42
2020-01-14 19:00:00 6.2 9 Norte 19 Norte 0 901.7 0.3 40
2020-01-14 18:00:00 7.5 10 Norte 19 Nordeste 0 901.2 -0.5 38
2020-01-14 17:00:00 9.8 8 Norte 16 Norte 0 901.3 -0.4 29
2020-01-14 16:00:00 11.5 3 Nordeste 13 Sur 0 901.4 -0.4 30
2020-01-14 15:00:00 11.9 11 Sur 22 Sur 0 901.7 -0.8 30
2020-01-14 14:00:00 11.6 14 Sur 22 Sur 0 901.7 -0.6 27
2020-01-14 13:00:00 11.3 9 Sur 15 Sur 0 901.8 -0.2 27
2020-01-14 12:00:00 9.5 3 Sudeste 9 Sudeste 0 902.5 0.6 31
2020-01-14 11:00:00 7.9 4 Sur 9 Norte 0 902.3 0.8 39
2020-01-14 10:00:00 5.1 3 Este 18 Nordeste 0 902 0.5 45
2020-01-14 09:00:00 2.1 4 Oeste 8 Norte 0 901.9 0.3 41
2020-01-14 08:00:00 2.3 5 Noroeste 19 Norte 0 901.5 0.1 38
2020-01-14 07:00:00 2.6 10 Norte 20 Nordeste 0 901.5 0 36
2020-01-14 06:00:00 2.7 10 Norte 20 Norte 0 901.6 -0.2 37
2020-01-14 05:00:00 1.3 3 Norte 18 Nordeste 0 901.4 -0.7 42
2020-01-14 04:00:00 2.1 8 Norte 19 Nordeste 0 901.5 -1.4 41
2020-01-14 03:00:00 2.7 10 Norte 20 Norte 0 901.8 -1.2 40
2020-01-14 02:00:00 3 12 Nordeste 23 Norte 0 902.1 -0.9 40
2020-01-14 01:00:00 2.5 6 Norte 21 Norte 0 902.9 0.3 44
2020-01-14 00:00:00 3.1 7 Norte 18 Nordeste 0 903 0.2 42
2020-01-13 23:00:00 3.6 12 Norte 24 Nordeste 0 903 0.5 40
2020-01-13 22:00:00 4 14 Norte 21 Nordeste 0 902.6 0.2 41
2020-01-13 21:00:00 5.3 5 Norte 12 Norte 0 902.8 0.2 39
2020-01-13 20:00:00 5 12 Norte 19 Nordeste 0 902.5 -0.4 43
2020-01-13 19:00:00 5.6 14 Norte 24 Norte 0 902.4 -0.4 43
2020-01-13 18:00:00 6.4 10 Norte 14 Nordeste 0 902.6 -0.3 44
2020-01-13 17:00:00 9.2 3 Noroeste 7 Sur 0 902.9 -0.8 35
2020-01-13 16:00:00 11.4 4 Sur 8 Sur 0 902.8 -1.7 34
2020-01-13 15:00:00 11.1 5 Sur 13 Sur 0 902.9 -2.5 31
2020-01-13 14:00:00 12.4 6 Sudeste 10 Sur 0 903.7 -1.8 27
2020-01-13 13:00:00 10.9 3 Sudeste 6 Sudeste 0 904.5 -0.9 28
2020-01-13 12:00:00 8.4 2 Este 5 Sudeste 0 905.4 -0.1 37
2020-01-13 11:00:00 5.9 2 Nordeste 4 Nordeste 0 905.5 -0.3 43
2020-01-13 10:00:00 4 2 Nordeste 9 Nordeste 0 905.4 -0.3 42
2020-01-13 09:00:00 1.5 4 Norte 10 Norte 0 905.5 -0.5 40
2020-01-13 08:00:00 0.6 0 Calma 4 Noroeste 0 905.8 -0.7 45
2020-01-13 07:00:00 0.3 0 Calma 5 Este 0 905.7 -1.4 47
2020-01-13 06:00:00 0.5 2 Sudoeste 6 Norte 0 906 -1.5 46
2020-01-13 05:00:00 0.3 2 Sur 5 Norte 0 906.5 -1.3 48
2020-01-13 04:00:00 0 3 Norte 6 Nordeste 0 907.1 -1.5 49
2020-01-13 03:00:00 0.3 0 Calma 6 Norte 0 907.5 -1.5 51
2020-01-13 02:00:00 0.7 4 Norte 9 Nordeste 0 907.8 -1.3 47
2020-01-13 01:00:00 0.4 0 Calma 12 Nordeste 0 908.6 -0.9 56
2020-01-13 00:00:00 1.7 6 Nordeste 14 Nordeste 0 909 -0.5 52
2020-01-12 23:00:00 1.5 3 Noroeste 9 Noroeste 0 909.1 -0.4 59
2020-01-12 22:00:00 1.8 3 Sudoeste 14 Norte 0 909.5 0.3 57
2020-01-12 21:00:00 2.5 2 Oeste 8 Nordeste 0 909.5 0.7 60
2020-01-12 20:00:00 2.5 3 Norte 9 Nordeste 0 909.5 0.8 61
2020-01-12 19:00:00 4.2 8 Norte 14 Nordeste 0 909.2 0.8 56
2020-01-12 18:00:00 4.6 0 Calma 4 Sur 0 908.8 0.3 58
2020-01-12 17:00:00 7.8 0 Calma 6 Sur 0 908.7 -0.2 46
2020-01-12 16:00:00 11.1 5 Sur 12 Sur 0 908.4 -1.3 36
2020-01-12 15:00:00 11.6 7 Sudoeste 16 Sudoeste 0 908.5 -1.7 32
2020-01-12 14:00:00 11.5 8 Sur 12 Sur 0 908.9 -1.1 34
2020-01-12 13:00:00 9.3 6 Sur 12 Sur 0 909.7 0.3 41
2020-01-12 12:00:00 8.6 4 Sudeste 9 Nordeste 0 910.2 1.5 36
2020-01-12 11:00:00 5 3 Nordeste 9 Nordeste 0 910 1.3 41
2020-01-12 10:00:00 2.2 6 Nordeste 12 Noroeste 0 909.4 0.6 44
2020-01-12 09:00:00 -0.3 3 Noroeste 10 Norte 0 908.7 0.1 54
2020-01-12 08:00:00 -1.1 4 Sudoeste 8 Noroeste 0 908.7 -0.1 60
2020-01-12 07:00:00 -1.1 2 Noroeste 6 Nordeste 0 908.8 -0.2 63
2020-01-12 06:00:00 -1.1 2 Nordeste 6 Nordeste 0 908.6 -0.5 63
2020-01-12 05:00:00 -1.2 2 Norte 5 Norte 0 908.8 -0.4 63
2020-01-12 04:00:00 -0.2 0 Calma 5 Sudoeste 0 909 -0.5 57
2020-01-12 03:00:00 -0.3 0 Calma 5 Noroeste 0 909.1 -0.8 60
2020-01-12 02:00:00 -0.2 2 Norte 6 Norte 0 909.2 -0.9 57
2020-01-12 01:00:00 0.2 3 Nordeste 10 Nordeste 0 909.5 -0.6 61
2020-01-12 00:00:00 1.2 5 Norte 13 Norte 0 909.9 -0.1 58
2020-01-11 23:00:00 1.1 2 Oeste 7 Norte 0 910.1 0.2 63
2020-01-11 22:00:00 1.1 0 Calma 14 Nordeste 0 910.1 0.6 66
2020-01-11 21:00:00 1.7 4 Norte 7 Nordeste 0 910 0.7 63
2020-01-11 20:00:00 2.2 2 Norte 11 Nordeste 0 909.9 0.6 63
2020-01-11 19:00:00 4.3 8 Norte 17 Norte 0 909.5 0.2 53
2020-01-11 18:00:00 5.4 9 Norte 13 Norte 0 909.3 -0.1 50
2020-01-11 17:00:00 8.9 4 Sur 14 Sudoeste 0 909.3 -0.5 35
2020-01-11 16:00:00 11.5 6 Sudoeste 16 Sudoeste 0 909.3 -1.2 32
2020-01-11 15:00:00 11.4 8 Sudoeste 15 Sudoeste 0 909.4 -2 30
2020-01-11 14:00:00 10.2 8 Sur 14 Sur 0 909.8 -1.7 32
2020-01-11 13:00:00 9 5 Sudeste 10 Sur 0 910.5 -0.6 31
2020-01-11 12:00:00 6.9 4 Sudeste 9 Sudeste 0 911.4 0.8 41
2020-01-11 11:00:00 3.8 3 Este 9 Nordeste 0 911.5 0.9 43
2020-01-11 10:00:00 2 2 Este 6 Nordeste 0 911.1 0.9 49
2020-01-11 09:00:00 -2 3 Norte 8 Norte 0 910.6 0.7 63
2020-01-11 08:00:00 -2 3 Norte 9 Nordeste 0 910.6 0.6 64
2020-01-11 07:00:00 -2.1 3 Oeste 6 Norte 0 910.2 -0.2 69
2020-01-11 06:00:00 -1.5 2 Nordeste 12 Sudoeste 0 909.9 -0.7 70
2020-01-11 05:00:00 -0.6 5 Oeste 17 Nordeste 0 910 -0.5 68
2020-01-11 04:00:00 -1.6 5 Oeste 9 Sudoeste 0 910.4 -0.1 71
2020-01-11 03:00:00 -0.6 3 Nordeste 10 Norte 0 910.6 -0.1 69
2020-01-11 02:00:00 -0.8 2 Norte 10 Nordeste 0 910.5 0.5 74
2020-01-11 01:00:00 -0.2 3 Norte 17 Nordeste 0 910.5 0.7 70
2020-01-11 00:00:00 1 5 Noroeste 13 Nordeste 0 910.7 1.3 66
2020-01-10 23:00:00 1.7 4 Norte 12 Sudoeste 0 910 0.9 57
2020-01-10 22:00:00 3.6 5 Norte 35 Nordeste 0 909.8 1 49
2020-01-10 21:00:00 5.7 20 Norte -- -- 0 909.4 1.3 42
2020-01-10 20:00:00 5.4 21 Nordeste 41 Norte 0 909.1 1.2 51
2020-01-10 19:00:00 5.9 -- -- -- -- 0 908.8 1.3 50
2020-01-10 18:00:00 5.7 9 Norte 29 Norte 0 908.1 1.3 53
2020-01-10 17:00:00 6.6 9 Nordeste 26 Este 0 907.9 1.2 47
2020-01-10 16:00:00 7.5 12 Este 34 Nordeste 0 907.5 0.7 43
2020-01-10 15:00:00 8.4 13 Nordeste 37 Nordeste 0 906.8 -0.4 46
2020-01-10 14:00:00 10 6 Sudeste 22 Sudoeste 0 906.7 -0.6 40
2020-01-10 13:00:00 9.1 8 Este 15 Nordeste 0 906.8 -0.3 42
2020-01-10 12:00:00 8.4 8 Sudeste 17 Sudeste 0 907.2 0.5 53
2020-01-10 11:00:00 6.4 12 Sur 17 Sur 0 907.3 1 64
2020-01-10 10:00:00 4.2 3 Norte 18 Oeste 0 907.1 1.3 70
2020-01-10 09:00:00 3.1 8 Oeste 33 Oeste 0 906.7 1.3 61
2020-01-10 08:00:00 3.5 14 Norte 27 Nordeste 0 906.3 1 58
2020-01-10 07:00:00 1.9 3 Sudeste 21 Noroeste 0 905.8 0.2 79
2020-01-10 06:00:00 2.1 3 Sudoeste 16 Oeste 0 905.4 0.1 81
2020-01-10 05:00:00 3.3 7 Oeste 23 Sudoeste 0 905.3 0 78
2020-01-10 04:00:00 3.3 4 Sudoeste 13 Noroeste 0 905.6 0.1 85
2020-01-10 03:00:00 3.4 8 Oeste 14 Sudoeste 0 905.3 -0.1 88
2020-01-10 02:00:00 3.7 6 Sudoeste 14 Oeste 0.2 905.3 0.2 87
2020-01-10 01:00:00 4.3 2 Sudeste 22 Oeste 0.4 905.5 0.4 90
2020-01-10 00:00:00 5.8 9 Oeste 24 Oeste 0 905.4 -0.1 81
2020-01-09 23:00:00 6.2 5 Norte 12 Oeste 0 905.1 -0.4 81
2020-01-09 22:00:00 6.8 7 Noroeste 20 Norte 0.2 905.1 -0.2 77
2020-01-09 21:00:00 7 4 Norte 14 Sudoeste 0 905.5 0.1 76
2020-01-09 20:00:00 8 0 Calma 11 Norte 0 905.5 0.4 66
2020-01-09 19:00:00 8 6 Nordeste 13 Oeste 0 905.3 0.6 65
2020-01-09 18:00:00 10.1 5 Sur 10 Sur 0 905.4 0.8 55
2020-01-09 17:00:00 10.9 6 Sudoeste 21 Sudoeste 0 905.1 -0.4 54
2020-01-09 16:00:00 12.6 12 Sur 26 Sur 0 904.7 -1.9 47
2020-01-09 15:00:00 14.1 14 Sur 27 Sur 0 904.6 -2.7 43
2020-01-09 14:00:00 14.1 14 Sur 22 Sur 0 905.5 -2.1 42
2020-01-09 13:00:00 13.8 8 Sur 15 Sur 0 906.6 -1.1 42
2020-01-09 12:00:00 13.4 9 Sur 13 Sur 0 907.3 -0.6 38
2020-01-09 11:00:00 11.7 4 Sur 21 Norte 0 907.6 -0.3 41
2020-01-09 10:00:00 7.9 13 Nordeste 22 Nordeste 0 907.7 -0.3 44
2020-01-09 09:00:00 6 8 Norte 22 Nordeste 0 907.9 -0.6 46
2020-01-09 08:00:00 5.3 15 Norte 19 Nordeste 0 907.9 -0.9 50
2020-01-09 07:00:00 5.3 12 Norte 19 Norte 0 908 -1.4 49
2020-01-09 06:00:00 4.7 7 Norte 19 Norte 0 908.5 -1.2 55
2020-01-09 05:00:00 4.8 8 Nordeste 14 Nordeste 0 908.8 -0.7 53
2020-01-09 04:00:00 4.6 4 Norte 17 Norte 0 909.4 -0.5 56
2020-01-09 03:00:00 4.9 3 Norte 12 Nordeste 0 909.7 -0.4 57
2020-01-09 02:00:00 5.2 4 Norte 10 Norte 0 909.5 -1 57
2020-01-09 01:00:00 6.6 4 Sur 22 Nordeste 0 909.9 -0.6 53
2020-01-09 00:00:00 7.3 16 Nordeste 24 Nordeste 0 910.1 -0.5 52
2020-01-08 23:00:00 7.3 14 Nordeste 19 Norte 0 910.5 -0.3 57
2020-01-08 22:00:00 7.6 13 Norte 19 Norte 0 910.5 -0.3 60
2020-01-08 21:00:00 7.6 9 Norte 21 Nordeste 0 910.6 0 61
2020-01-08 20:00:00 8.1 13 Norte 20 Norte 0 910.8 0.5 60
2020-01-08 19:00:00 8.5 13 Norte 19 Nordeste 0 910.8 0.7 60
2020-01-08 18:00:00 9.7 9 Norte 14 Norte 0 910.6 0.4 56
2020-01-08 17:00:00 12.7 5 Sudoeste 12 Sudoeste 0 910.3 -0.1 44
2020-01-08 16:00:00 14.4 6 Sudoeste 15 Sudoeste 0 910.1 -0.7 39
2020-01-08 15:00:00 14.5 11 Sudoeste 21 Sudoeste 0 910.2 -1.3 42
2020-01-08 14:00:00 15.2 9 Sudoeste 22 Sudoeste 0 910.4 -1.1 42
2020-01-08 13:00:00 14.4 7 Sudeste 12 Sudeste 0 910.8 -0.2 45
2020-01-08 12:00:00 13.6 4 Sudeste 9 Nordeste 0 911.5 1.2 47
2020-01-08 11:00:00 10.6 4 Nordeste 16 Nordeste 0 911.5 1.8 54
2020-01-08 10:00:00 8.3 0 Calma 6 Oeste 0 911 1.6 62
2020-01-08 09:00:00 5.3 2 Sur 10 Norte 0 910.3 1.1 65
2020-01-08 08:00:00 6.2 6 Norte 16 Norte 0 909.7 0.6 62
2020-01-08 07:00:00 5.2 5 Norte 11 Nordeste 0 909.4 0 65
2020-01-08 06:00:00 5.6 5 Norte 13 Nordeste 0 909.2 -0.2 63
2020-01-08 05:00:00 5.6 2 Sur 7 Sudoeste 0 909.1 -0.3 63
2020-01-08 04:00:00 6 3 Norte 9 Nordeste 0 909.4 -0.2 62
2020-01-08 03:00:00 5.9 2 Sur 6 Norte 0 909.4 -0.6 60
2020-01-08 02:00:00 5.8 2 Norte 8 Norte 0 909.4 -0.5 60
2020-01-08 01:00:00 5.8 4 Norte 9 Norte 0 909.6 -0.4 62
2020-01-08 00:00:00 5.6 3 Este 8 Nordeste 0 910 0.1 63
2020-01-07 23:00:00 5.8 3 Sur 12 Norte 0 909.9 0.2 63
2020-01-07 22:00:00 6 4 Norte 12 Nordeste 0 910 0.3 63
2020-01-07 21:00:00 6.3 3 Norte 9 Nordeste 0 909.9 0.4 63
2020-01-07 20:00:00 6.5 2 Sur 12 Norte 0 909.7 0.2 62
2020-01-07 19:00:00 6.6 3 Norte 12 Nordeste 0 909.7 0.3 61
2020-01-07 18:00:00 8.3 4 Noroeste 10 Nordeste 0 909.5 0.1 57
2020-01-07 17:00:00 10.3 3 Noroeste 8 Sur 0 909.5 -0.3 49
2020-01-07 16:00:00 13.7 4 Sur 11 Sur 0 909.4 -1.4 38
2020-01-07 15:00:00 13.2 5 Sur 14 Sur 0 909.4 -1.9 37
2020-01-07 14:00:00 12.7 6 Sur 11 Sur 0 909.8 -1.7 38
2020-01-07 13:00:00 11.2 5 Sudeste 10 Sudeste 0 910.8 -0.5 39
2020-01-07 12:00:00 9.5 4 Sudeste 10 Sur 0 911.3 0.4 41
2020-01-07 11:00:00 6.4 3 Norte 9 Nordeste 0 911.5 0.8 49
2020-01-07 10:00:00 5.1 3 Sudeste 7 Nordeste 0 911.3 0.5 55
2020-01-07 09:00:00 1.1 2 Noroeste 6 Nordeste 0 910.9 0.3 57
2020-01-07 08:00:00 0.3 2 Oeste 8 Noroeste 0 910.7 0.1 66
2020-01-07 07:00:00 0.3 2 Noroeste 5 Oeste 0 910.8 -0.1 66
2020-01-07 06:00:00 0.7 3 Noroeste 5 Nordeste 0 910.6 -0.1 66
2020-01-07 05:00:00 0.9 3 Noroeste 7 Oeste 0 910.6 0 66
2020-01-07 04:00:00 0.7 2 Nordeste 7 Nordeste 0 910.9 0.1 66
2020-01-07 03:00:00 1.3 3 Sudoeste 8 Nordeste 0 910.7 0.3 66
2020-01-07 02:00:00 1.1 4 Norte 12 Noroeste 0 910.6 0.4 68
2020-01-07 01:00:00 2 4 Nordeste 10 Este 0 910.8 0.8 66
2020-01-07 00:00:00 2.1 4 Norte 9 Nordeste 0 910.4 0.4 65
2020-01-06 23:00:00 2.9 3 Sudeste 9 Noroeste 0 910.2 0.2 67
2020-01-06 22:00:00 3.8 7 Nordeste 12 Norte 0 910 0.5 65
2020-01-06 21:00:00 3.7 5 Norte 9 Noroeste 0 910 1.3 68
2020-01-06 20:00:00 4.7 3 Norte 12 Nordeste 0 910 1.5 64
2020-01-06 19:00:00 4.9 3 Nordeste 10 Norte 0 909.5 1.1 64
2020-01-06 18:00:00 6.7 4 Nordeste 8 Nordeste 0 908.7 0.6 57
2020-01-06 17:00:00 10.3 4 Sur 13 Sur 0 908.5 -0.3 42
2020-01-06 16:00:00 13.2 6 Sur 19 Sudoeste 0 908.4 -0.9 34
2020-01-06 15:00:00 13.7 9 Sudoeste 16 Sur 0 908.1 -1.6 31
2020-01-06 14:00:00 13.2 8 Sur 18 Sudoeste 0 908.8 -1.1 29
2020-01-06 13:00:00 11.3 8 Sudeste 11 Sur 0 909.3 -0.4 35
2020-01-06 12:00:00 10.9 5 Sudeste 8 Sudeste 0 909.7 0.2 32
2020-01-06 11:00:00 8.2 3 Nordeste 13 Nordeste 0 909.9 0.9 42
2020-01-06 10:00:00 7.3 3 Nordeste 10 Nordeste 0 909.7 1 37